createdAt,value
2022-09-16T00:00:15.702Z,0
2022-09-16T00:01:16.280Z,0
2022-09-16T00:02:16.234Z,0
2022-09-16T00:03:15.412Z,0
2022-09-16T00:04:15.949Z,0
2022-09-16T00:05:16.231Z,0
2022-09-16T00:06:16.191Z,0
2022-09-16T00:07:15.629Z,0
2022-09-16T00:08:16.126Z,0
2022-09-16T00:09:15.874Z,0
2022-09-16T00:10:15.851Z,0
2022-09-16T00:11:16.093Z,0
2022-09-16T00:12:15.571Z,0
2022-09-16T00:13:15.831Z,0
2022-09-16T00:14:16.052Z,0
2022-09-16T00:15:15.532Z,0
2022-09-16T00:16:16.102Z,0
2022-09-16T00:17:15.786Z,0
2022-09-16T00:18:15.758Z,0
2022-09-16T00:19:15.750Z,0
2022-09-16T00:20:15.780Z,0
2022-09-16T00:21:16.051Z,0
2022-09-16T00:22:15.522Z,0
2022-09-16T00:23:15.448Z,0
2022-09-16T00:24:16.009Z,0
2022-09-16T00:25:15.929Z,0
2022-09-16T00:26:15.692Z,0
2022-09-16T00:27:15.408Z,0
2022-09-16T00:28:15.400Z,0
2022-09-16T00:29:15.131Z,0
2022-09-16T00:30:15.623Z,0
2022-09-16T00:31:15.626Z,0
2022-09-16T00:32:15.099Z,0
2022-09-16T00:33:15.590Z,0
2022-09-16T00:34:15.328Z,0
2022-09-16T00:35:15.825Z,0
2022-09-16T00:36:15.874Z,0
2022-09-16T00:37:15.620Z,0
2022-09-16T00:38:15.571Z,0
2022-09-16T00:39:15.292Z,0
2022-09-16T00:40:15.270Z,0
2022-09-16T00:41:15.515Z,0
2022-09-16T00:42:15.496Z,0
2022-09-16T00:43:15.486Z,0
2022-09-16T00:44:15.225Z,0
2022-09-16T00:45:15.209Z,0
2022-09-16T00:46:15.557Z,0
2022-09-16T00:47:15.320Z,0
2022-09-16T00:48:15.433Z,0
2022-09-16T00:49:15.158Z,0
2022-09-16T00:50:15.412Z,0
2022-09-16T00:51:15.410Z,0
2022-09-16T00:52:15.155Z,0
2022-09-16T00:53:15.445Z,0
2022-09-16T00:54:15.142Z,0
2022-09-16T00:55:15.098Z,0
2022-09-16T00:56:15.094Z,0
2022-09-16T00:57:15.325Z,0
2022-09-16T00:58:15.319Z,0
2022-09-16T00:59:15.322Z,0
2022-09-16T01:00:15.305Z,0
2022-09-16T01:01:15.843Z,0
2022-09-16T01:02:15.910Z,0
2022-09-16T01:03:15.264Z,0
2022-09-16T01:04:15.515Z,0
2022-09-16T01:05:15.492Z,0
2022-09-16T01:06:15.228Z,0
2022-09-16T01:07:14.947Z,0
2022-09-16T01:08:15.236Z,0
2022-09-16T01:09:15.517Z,0
2022-09-16T01:10:15.225Z,0
2022-09-16T01:11:15.179Z,0
2022-09-16T01:12:15.427Z,0
2022-09-16T01:13:14.931Z,0
2022-09-16T01:14:14.901Z,0
2022-09-16T01:15:15.123Z,0
2022-09-16T01:16:15.482Z,0
2022-09-16T01:17:14.851Z,0
2022-09-16T01:18:14.576Z,0
2022-09-16T01:19:15.332Z,0
2022-09-16T01:20:14.554Z,0
2022-09-16T01:21:15.066Z,0
2022-09-16T01:22:15.045Z,0
2022-09-16T01:23:14.801Z,0
2022-09-16T01:24:14.558Z,0
2022-09-16T01:25:15.337Z,0
2022-09-16T01:26:15.122Z,0
2022-09-16T01:27:15.250Z,0
2022-09-16T01:28:15.230Z,0
2022-09-16T01:29:14.972Z,0
2022-09-16T01:30:14.958Z,0
2022-09-16T01:31:15.391Z,0
2022-09-16T01:32:14.932Z,0
2022-09-16T01:33:14.665Z,0
2022-09-16T01:34:14.663Z,0
2022-09-16T01:35:14.905Z,0
2022-09-16T01:36:14.639Z,0
2022-09-16T01:37:46.710Z,0
2022-09-16T01:38:14.636Z,0
2022-09-16T01:39:14.847Z,0
2022-09-16T01:40:14.652Z,0
2022-09-16T01:41:14.890Z,0
2022-09-16T01:42:14.867Z,0
2022-09-16T01:43:14.565Z,0
2022-09-16T01:44:15.068Z,0
2022-09-16T01:45:14.543Z,0
2022-09-16T01:46:15.068Z,0
2022-09-16T01:47:14.755Z,0
2022-09-16T01:48:14.505Z,0
2022-09-16T01:49:14.741Z,0
2022-09-16T01:50:14.722Z,0
2022-09-16T01:51:14.975Z,0
2022-09-16T01:52:14.954Z,0
2022-09-16T01:53:14.706Z,0
2022-09-16T01:54:14.677Z,0
2022-09-16T01:55:14.666Z,0
2022-09-16T01:56:14.685Z,0
2022-09-16T01:57:14.701Z,0
2022-09-16T01:58:14.662Z,0
2022-09-16T01:59:14.376Z,0
2022-09-16T02:00:14.768Z,0
2022-09-16T02:01:14.609Z,0
2022-09-16T02:02:15.336Z,0
2022-09-16T02:03:14.062Z,0
2022-09-16T02:04:14.319Z,0
2022-09-16T02:05:14.561Z,0
2022-09-16T02:06:14.037Z,0
2022-09-16T02:07:14.309Z,0
2022-09-16T02:08:14.263Z,0
2022-09-16T02:09:14.253Z,0
2022-09-16T02:10:14.274Z,0
2022-09-16T02:11:14.487Z,0
2022-09-16T02:12:14.239Z,0
2022-09-16T02:13:14.761Z,0
2022-09-16T02:14:14.477Z,0
2022-09-16T02:15:14.198Z,0
2022-09-16T02:16:14.730Z,0
2022-09-16T02:17:14.157Z,0
2022-09-16T02:18:14.403Z,0
2022-09-16T02:19:14.141Z,0
2022-09-16T02:20:14.380Z,0
2022-09-16T02:21:14.469Z,0
2022-09-16T02:22:13.894Z,0
2022-09-16T02:23:14.355Z,0
2022-09-16T02:24:14.358Z,0
2022-09-16T02:25:14.072Z,0
2022-09-16T02:26:14.314Z,0
2022-09-16T02:27:14.045Z,0
2022-09-16T02:28:14.072Z,0
2022-09-16T02:29:14.325Z,0
2022-09-16T02:30:14.300Z,0
2022-09-16T02:31:14.575Z,0
2022-09-16T02:32:13.989Z,0
2022-09-16T02:33:13.992Z,0
2022-09-16T02:34:13.964Z,0
2022-09-16T02:35:14.460Z,0
2022-09-16T02:36:13.682Z,0
2022-09-16T02:37:14.180Z,0
2022-09-16T02:38:14.433Z,0
2022-09-16T02:39:14.171Z,0
2022-09-16T02:40:14.427Z,0
2022-09-16T02:41:13.890Z,0
2022-09-16T02:42:14.148Z,0
2022-09-16T02:43:13.869Z,0
2022-09-16T02:44:14.209Z,0
2022-09-16T02:45:14.392Z,0
2022-09-16T02:46:14.640Z,0
2022-09-16T02:47:13.815Z,0
2022-09-16T02:48:14.061Z,0
2022-09-16T02:49:14.043Z,0
2022-09-16T02:50:13.783Z,0
2022-09-16T02:51:13.878Z,0
2022-09-16T02:52:13.766Z,0
2022-09-16T02:53:14.006Z,0
2022-09-16T02:54:14.006Z,0
2022-09-16T02:55:13.986Z,0
2022-09-16T02:56:13.719Z,0
2022-09-16T02:57:13.446Z,0
2022-09-16T02:58:14.219Z,0
2022-09-16T02:59:13.938Z,0
2022-09-16T03:00:13.694Z,0
2022-09-16T03:01:14.233Z,0
2022-09-16T03:02:14.184Z,0
2022-09-16T03:03:14.014Z,0
2022-09-16T03:04:13.365Z,0
2022-09-16T03:05:13.855Z,0
2022-09-16T03:06:13.605Z,0
2022-09-16T03:07:13.608Z,0
2022-09-16T03:08:13.826Z,0
2022-09-16T03:09:13.564Z,0
2022-09-16T03:10:14.052Z,0
2022-09-16T03:11:13.801Z,0
2022-09-16T03:12:13.521Z,0
2022-09-16T03:13:13.765Z,0
2022-09-16T03:14:13.500Z,0
2022-09-16T03:15:13.750Z,0
2022-09-16T03:16:14.385Z,0
2022-09-16T03:17:14.038Z,0
2022-09-16T03:18:13.486Z,0
2022-09-16T03:19:13.213Z,0
2022-09-16T03:20:13.693Z,0
2022-09-16T03:21:13.931Z,0
2022-09-16T03:22:13.925Z,0
2022-09-16T03:23:13.665Z,0
2022-09-16T03:24:13.387Z,0
2022-09-16T03:25:13.902Z,0
2022-09-16T03:26:13.621Z,0
2022-09-16T03:27:13.618Z,0
2022-09-16T03:28:13.607Z,0
2022-09-16T03:29:13.577Z,0
2022-09-16T03:30:13.584Z,0
2022-09-16T03:31:13.864Z,0
2022-09-16T03:32:13.995Z,0
2022-09-16T03:49:23.417Z,0
2022-09-16T03:50:23.304Z,0
2022-09-16T03:51:22.538Z,0
2022-09-16T03:52:23.016Z,0
2022-09-16T03:53:22.741Z,0
2022-09-16T03:54:22.734Z,0
2022-09-16T03:55:22.976Z,0
2022-09-16T03:56:23.216Z,0
2022-09-16T03:57:22.681Z,0
2022-09-16T03:58:23.189Z,0
2022-09-16T03:59:22.514Z,0
2022-09-16T04:00:22.389Z,0
2022-09-16T04:01:22.596Z,0
2022-09-16T04:02:22.868Z,0
2022-09-16T04:03:23.127Z,0
2022-09-16T04:04:22.860Z,0
2022-09-16T04:05:23.188Z,0
2022-09-16T04:06:22.837Z,0
2022-09-16T04:07:22.825Z,0
2022-09-16T04:08:22.814Z,0
2022-09-16T04:09:23.054Z,0
2022-09-16T04:10:23.031Z,0
2022-09-16T04:11:22.769Z,0
2022-09-16T04:12:22.766Z,0
2022-09-16T04:13:22.492Z,0
2022-09-16T04:14:22.635Z,0
2022-09-16T04:15:22.983Z,0
2022-09-16T04:16:23.009Z,0
2022-09-16T04:17:22.442Z,0
2022-09-16T04:18:22.952Z,0
2022-09-16T04:19:23.081Z,0
2022-09-16T04:20:22.663Z,0
2022-09-16T04:21:22.996Z,0
2022-09-16T04:22:22.140Z,0
2022-09-16T04:23:22.378Z,0
2022-09-16T04:24:22.613Z,4
2022-09-16T04:25:22.594Z,4
2022-09-16T04:26:22.354Z,0
2022-09-16T04:27:22.334Z,4
2022-09-16T04:28:22.328Z,4
2022-09-16T04:29:22.394Z,4
2022-09-16T04:30:22.825Z,4
2022-09-16T04:31:22.863Z,4
2022-09-16T04:32:22.518Z,4
2022-09-16T04:33:22.760Z,4
2022-09-16T04:34:21.988Z,8
2022-09-16T04:35:22.236Z,12
2022-09-16T04:36:22.228Z,16
2022-09-16T04:37:22.835Z,20
2022-09-16T04:38:22.205Z,24
2022-09-16T04:39:22.198Z,28
2022-09-16T04:40:22.470Z,32
2022-09-16T04:41:22.425Z,32
2022-09-16T04:42:22.403Z,40
2022-09-16T04:43:22.398Z,44
2022-09-16T04:44:22.296Z,40
2022-09-16T04:45:22.372Z,40
2022-09-16T04:46:22.172Z,44
2022-09-16T04:47:22.347Z,60
2022-09-16T04:48:22.346Z,76
2022-09-16T04:49:22.243Z,88
2022-09-16T04:50:22.609Z,92
2022-09-16T04:51:22.564Z,100
2022-09-16T04:52:22.301Z,120
2022-09-16T04:53:22.648Z,140
2022-09-16T04:54:22.267Z,164
2022-09-16T04:55:22.254Z,168
2022-09-16T04:56:22.253Z,160
2022-09-16T04:57:22.499Z,156
2022-09-16T04:58:22.217Z,156
2022-09-16T04:59:21.701Z,152
2022-09-16T05:00:21.953Z,144
2022-09-16T05:01:22.439Z,148
2022-09-16T05:02:22.183Z,152
2022-09-16T05:03:22.524Z,144
2022-09-16T05:04:21.914Z,124
2022-09-16T05:05:22.157Z,96
2022-09-16T05:06:27.406Z,80
2022-09-16T05:07:22.126Z,68
2022-09-16T05:08:22.376Z,92
2022-09-16T05:09:22.548Z,172
2022-09-16T05:10:22.357Z,236
2022-09-16T05:11:22.139Z,328
2022-09-16T05:12:22.322Z,480
2022-09-16T05:13:22.316Z,648
2022-09-16T05:14:22.037Z,816
2022-09-16T05:15:22.262Z,972
2022-09-16T05:16:22.655Z,1044
2022-09-16T05:17:55.798Z,1012
2022-09-16T05:18:21.986Z,1004
2022-09-16T05:19:21.725Z,1000
2022-09-16T05:20:22.231Z,1004
2022-09-16T05:21:21.712Z,1048
2022-09-16T05:22:21.688Z,1092
2022-09-16T05:23:21.691Z,1144
2022-09-16T05:24:21.979Z,1264
2022-09-16T05:25:22.662Z,1436
2022-09-16T05:26:21.654Z,1640
2022-09-16T05:27:21.891Z,1776
2022-09-16T05:28:22.142Z,1916
2022-09-16T05:29:22.134Z,2040
2022-09-16T05:30:27.603Z,2088
2022-09-16T05:31:22.297Z,2016
2022-09-16T05:32:21.836Z,2008
2022-09-16T05:33:21.580Z,1944
2022-09-16T05:34:22.074Z,1808
2022-09-16T05:35:21.806Z,1624
2022-09-16T05:36:21.789Z,1468
2022-09-16T05:37:21.792Z,1416
2022-09-16T05:38:21.519Z,1424
2022-09-16T05:39:31.829Z,1300
2022-09-16T05:40:22.064Z,1084
2022-09-16T05:41:22.488Z,780
2022-09-16T05:42:21.723Z,564
2022-09-16T05:43:21.727Z,480
2022-09-16T05:44:21.445Z,492
2022-09-16T05:45:33.570Z,516
2022-09-16T05:46:21.549Z,624
2022-09-16T05:47:21.928Z,752
2022-09-16T05:48:21.910Z,664
2022-09-16T05:49:21.690Z,724
2022-09-16T05:50:21.136Z,880
2022-09-16T05:51:27.372Z,932
2022-09-16T05:52:21.102Z,952
2022-09-16T05:53:21.599Z,908
2022-09-16T05:54:21.406Z,860
2022-09-16T05:55:21.847Z,812
2022-09-16T05:56:21.847Z,816
2022-09-16T05:57:22.314Z,876
2022-09-16T05:58:21.549Z,980
2022-09-16T05:59:21.548Z,1112
2022-09-16T06:00:21.788Z,1244
2022-09-16T06:01:21.559Z,1332
2022-09-16T06:02:21.816Z,1444
2022-09-16T06:03:20.991Z,1752
2022-09-16T06:04:21.087Z,2120
2022-09-16T06:05:20.967Z,2484
2022-09-16T06:06:21.207Z,2772
2022-09-16T06:07:20.943Z,3072
2022-09-16T06:08:21.183Z,3576
2022-09-16T06:09:21.430Z,3872
2022-09-16T06:10:21.425Z,3572
2022-09-16T06:11:21.394Z,3460
2022-09-16T06:12:21.387Z,3576
2022-09-16T06:13:22.112Z,3672
2022-09-16T06:14:21.133Z,3368
2022-09-16T06:15:21.352Z,3096
2022-09-16T06:16:21.603Z,3048
2022-09-16T06:17:21.331Z,3052
2022-09-16T06:18:21.335Z,3100
2022-09-16T06:19:21.088Z,3140
2022-09-16T06:20:21.318Z,3060
2022-09-16T06:21:21.548Z,3044
2022-09-16T06:22:21.282Z,2916
2022-09-16T06:23:21.276Z,2696
2022-09-16T06:24:21.315Z,3316
2022-09-16T06:25:21.250Z,3512
2022-09-16T06:26:21.496Z,3268
2022-09-16T06:27:21.486Z,3144
2022-09-16T06:28:21.460Z,3148
2022-09-16T06:29:22.150Z,3608
2022-09-16T06:30:21.189Z,3376
2022-09-16T06:31:21.304Z,3192
2022-09-16T06:32:21.167Z,3216
2022-09-16T06:33:21.158Z,3212
2022-09-16T06:34:21.435Z,3604
2022-09-16T06:35:21.398Z,3956
2022-09-16T06:36:21.141Z,3668
2022-09-16T06:37:20.874Z,3568
2022-09-16T06:38:21.110Z,3840
2022-09-16T06:39:20.857Z,3096
2022-09-16T06:40:21.066Z,2496
2022-09-16T06:41:20.816Z,2420
2022-09-16T06:42:21.057Z,2336
2022-09-16T06:43:21.052Z,2440
2022-09-16T06:44:20.801Z,2776
2022-09-16T06:45:21.788Z,3020
2022-09-16T06:46:21.270Z,2988
2022-09-16T06:47:21.014Z,3076
2022-09-16T06:48:20.997Z,3556
2022-09-16T06:49:20.981Z,3732
2022-09-16T06:50:20.717Z,3704
2022-09-16T06:51:20.975Z,3672
2022-09-16T06:52:20.959Z,3920
2022-09-16T06:53:20.968Z,4160
2022-09-16T06:54:20.943Z,4508
2022-09-16T06:55:20.930Z,4724
2022-09-16T06:56:20.649Z,4744
2022-09-16T06:57:21.158Z,4000
2022-09-16T06:58:20.379Z,3740
2022-09-16T06:59:20.627Z,3728
2022-09-16T07:00:20.615Z,3856
2022-09-16T07:01:21.947Z,4072
2022-09-16T07:02:21.222Z,4388
2022-09-16T07:03:21.135Z,4904
2022-09-16T07:04:20.833Z,5484
2022-09-16T07:05:20.332Z,6260
2022-09-16T07:06:20.819Z,6508
2022-09-16T07:07:20.798Z,6664
2022-09-16T07:08:20.788Z,6572
2022-09-16T07:09:20.783Z,7056
2022-09-16T07:10:20.516Z,7056
2022-09-16T07:11:20.246Z,5344
2022-09-16T07:12:26.293Z,3160
2022-09-16T07:13:20.479Z,2784
2022-09-16T07:14:20.751Z,2792
2022-09-16T07:15:20.987Z,2752
2022-09-16T07:16:21.475Z,3048
2022-09-16T07:17:21.499Z,3432
2022-09-16T07:18:20.457Z,3248
2022-09-16T07:19:20.928Z,2188
2022-09-16T07:20:20.165Z,1776
2022-09-16T07:21:20.654Z,2400
2022-09-16T07:22:20.149Z,2768
2022-09-16T07:23:20.402Z,2980
2022-09-16T07:24:20.614Z,2956
2022-09-16T07:25:20.626Z,2564
2022-09-16T07:26:20.103Z,2312
2022-09-16T07:27:20.873Z,2312
2022-09-16T07:28:20.366Z,2756
2022-09-16T07:29:20.311Z,3424
2022-09-16T07:30:20.820Z,4440
2022-09-16T07:31:20.720Z,5776
2022-09-16T07:32:20.574Z,6504
2022-09-16T07:33:21.282Z,6384
2022-09-16T07:34:21.099Z,6724
2022-09-16T07:35:20.509Z,6592
2022-09-16T07:36:20.756Z,5100
2022-09-16T07:37:20.253Z,4436
2022-09-16T07:38:19.970Z,5372
2022-09-16T07:39:20.213Z,7800
2022-09-16T07:40:20.880Z,8256
2022-09-16T07:41:20.444Z,7244
2022-09-16T07:42:20.446Z,8540
2022-09-16T07:43:20.167Z,8196
2022-09-16T07:44:20.699Z,6248
2022-09-16T07:45:20.404Z,6896
2022-09-16T07:46:20.872Z,8468
2022-09-16T07:47:25.950Z,8848
2022-09-16T07:48:20.625Z,7624
2022-09-16T07:49:21.137Z,7736
2022-09-16T07:50:20.108Z,8236
2022-09-16T07:51:20.083Z,6960
2022-09-16T07:52:19.823Z,6248
2022-09-16T07:53:20.327Z,7032
2022-09-16T07:54:19.814Z,7616
2022-09-16T07:55:20.056Z,6372
2022-09-16T07:56:20.296Z,5604
2022-09-16T07:57:20.294Z,7260
2022-09-16T07:58:20.289Z,7008
2022-09-16T07:59:24.655Z,6780
2022-09-16T08:00:20.263Z,5824
2022-09-16T08:01:20.709Z,5524
2022-09-16T08:02:20.841Z,5416
2022-09-16T08:03:20.122Z,5596
2022-09-16T08:04:19.966Z,6092
2022-09-16T08:05:20.967Z,6316
2022-09-16T08:06:19.712Z,7344
2022-09-16T08:07:20.469Z,8188
2022-09-16T08:08:20.528Z,7192
2022-09-16T08:09:56.228Z,5560
2022-09-16T08:10:20.468Z,5324
2022-09-16T08:11:19.902Z,4968
2022-09-16T08:12:20.146Z,4104
2022-09-16T08:13:20.144Z,3936
2022-09-16T08:14:19.874Z,4208
2022-09-16T08:15:21.238Z,4760
2022-09-16T08:16:20.145Z,6300
2022-09-16T08:17:20.376Z,7484
2022-09-16T08:18:20.339Z,8268
2022-09-16T08:19:20.082Z,8716
2022-09-16T08:20:20.349Z,10524
2022-09-16T08:21:20.808Z,10608
2022-09-16T08:22:20.052Z,9336
2022-09-16T08:23:20.051Z,9260
2022-09-16T08:24:20.052Z,9908
2022-09-16T08:25:19.771Z,9504
2022-09-16T08:26:19.502Z,8884
2022-09-16T08:27:19.758Z,7272
